Time;durP1;ratioP1;P1;durP2;ratioP2;P2;SDS_P1;SDS_P2;PMS_P1;PMS_P2;Temp;Humidity;BMP_temperature;BMP_pressure;BME280_temperature;BME280_humidity;BME280_pressure;Samples;Min_cycle;Max_cycle;Signal;HPM_P1;HPM_P2
2024/01/05 00:01:10;;;;;;;8.98;4.43;;;9.50;1.00;;;6.33;100.00;99347.13;4983735;28;19929;-81
2024/01/05 00:03:38;;;;;;;10.32;4.20;;;9.40;1.00;;;6.59;100.00;99389.25;4994376;28;20062;-81
2024/01/05 00:06:05;;;;;;;10.07;4.70;;;8.00;1.00;;;6.68;100.00;99409.94;4985789;28;20054;-81
2024/01/05 00:08:32;;;;;;;8.20;4.50;;;8.20;1.00;;;6.16;100.00;99326.63;5001236;28;20114;-80
2024/01/05 00:11:00;;;;;;;12.32;4.20;;;8.10;3.70;;;6.23;100.00;99349.09;4991153;28;20834;-80
2024/01/05 00:13:27;;;;;;;10.30;4.32;;;8.00;1.00;;;6.58;100.00;99396.25;4971758;28;20050;-80
2024/01/05 00:15:57;;;;;;;8.25;4.30;;;8.10;1.00;;;6.15;100.00;99327.50;4979419;28;20050;-79
2024/01/05 00:18:24;;;;;;;6.57;3.33;;;8.60;1.00;;;6.32;100.00;99348.03;4987882;28;20113;-80
2024/01/05 00:20:52;;;;;;;7.30;3.80;;;8.50;1.00;;;6.17;100.00;99299.63;4986329;28;20050;-79
2024/01/05 00:23:19;;;;;;;9.20;5.15;;;8.80;1.00;;;6.18;100.00;99322.25;4974577;28;20054;-84
2024/01/05 00:25:46;;;;;;;7.10;3.05;;;9.00;1.00;;;6.23;100.00;99329.94;4990551;28;20047;-79
2024/01/05 00:28:13;;;;;;;8.23;3.30;;;8.00;1.00;;;6.24;100.00;99316.00;4980691;28;20061;-83
2024/01/05 00:30:40;;;;;;;5.72;3.35;;;8.10;1.00;;;6.21;100.00;99306.50;4971506;28;20050;-80
2024/01/05 00:33:07;;;;;;;8.75;4.80;;;8.90;2.90;;;6.13;100.00;99315.41;4942368;28;20145;-81
2024/01/05 00:35:35;;;;;;;10.07;5.43;;;8.10;1.00;;;5.91;100.00;99268.84;4968116;28;20046;-80
2024/01/05 00:38:04;;;;;;;10.38;5.10;;;8.00;5.40;;;6.24;100.00;99329.94;4978054;28;20568;-81
2024/01/05 00:40:31;;;;;;;14.68;5.40;;;8.10;1.00;;;6.06;100.00;99299.00;4967648;28;20141;-81
2024/01/05 00:43:02;;;;;;;9.40;4.90;;;7.90;1.00;;;6.15;100.00;99318.84;4970968;28;20081;-80
2024/01/05 00:45:29;;;;;;;8.50;4.18;;;8.00;1.00;;;5.97;100.00;99287.81;4969678;28;20043;-80
2024/01/05 00:47:56;;;;;;;7.10;3.25;;;8.00;1.00;;;6.19;100.00;99330.91;4985845;28;20416;-80
2024/01/05 00:50:23;;;;;;;7.32;3.70;;;8.20;1.00;;;6.28;100.00;99337.69;4979070;28;20075;-81
2024/01/05 00:52:50;;;;;;;9.57;3.72;;;8.50;1.00;;;6.24;100.00;99331.66;4966827;28;20548;-80
2024/01/05 00:55:18;;;;;;;9.73;4.63;;;7.70;1.00;;;5.79;100.00;99257.78;4973203;28;20050;-81
2024/01/05 00:57:45;;;;;;;8.13;3.70;;;8.40;1.00;;;5.95;100.00;99312.28;4966305;28;20078;-80
2024/01/05 01:00:13;;;;;;;10.02;4.40;;;7.90;1.00;;;5.86;100.00;99278.53;4961698;28;20085;-79
2024/01/05 01:02:41;;;;;;;8.52;4.07;;;7.90;1.00;;;6.50;100.00;99380.72;4976222;28;20038;-80
2024/01/05 01:05:09;;;;;;;10.80;4.45;;;8.50;1.00;;;6.35;100.00;99374.09;4988642;28;20086;-79
2024/01/05 01:07:36;;;;;;;7.03;3.70;;;8.20;1.00;;;5.90;100.00;99286.25;4967843;28;20070;-80
2024/01/05 01:10:03;;;;;;;7.47;4.15;;;7.90;1.00;;;6.13;100.00;99304.94;4974301;28;20054;-81
2024/01/05 01:12:30;;;;;;;7.88;3.78;;;7.80;1.00;;;6.40;100.00;99350.47;4984056;28;20062;-81
2024/01/05 01:14:58;;;;;;;10.10;3.78;;;7.80;1.00;;;6.14;100.00;99328.41;4949862;28;20142;-80
2024/01/05 01:17:25;;;;;;;8.65;2.97;;;8.50;1.00;;;5.94;100.00;99294.91;4971786;28;20069;-80
2024/01/05 01:19:52;;;;;;;7.22;3.28;;;9.20;1.00;;;6.19;100.00;99355.31;4989544;28;20476;-79
2024/01/05 01:22:19;;;;;;;6.60;3.25;;;8.40;1.00;;;5.91;100.00;99301.03;4968595;28;20063;-80
2024/01/05 01:24:47;;;;;;;5.90;3.35;;;7.80;1.00;;;6.33;100.00;99360.19;4952630;28;20047;-80
2024/01/05 01:27:18;;;;;;;8.23;3.42;;;8.60;1.00;;;6.21;100.00;99337.84;4952508;28;20043;-80
2024/01/05 01:29:45;;;;;;;;;;;8.30;1.00;;;6.02;100.00;99302.59;4933371;29;20110;-79
2024/01/05 01:32:12;;;;;;;5.93;3.38;;;7.90;1.00;;;5.80;100.00;99263.84;4938294;28;20440;-79
2024/01/05 01:34:39;;;;;;;8.45;4.32;;;7.70;4.30;;;6.31;100.00;99350.66;4955742;28;20070;-81
2024/01/05 01:37:07;;;;;;;11.38;5.38;;;8.80;1.00;;;5.94;100.00;99289.69;4954124;28;20054;-81
2024/01/05 01:39:34;;;;;;;10.25;4.25;;;8.50;1.00;;;5.89;100.00;99275.84;4926112;28;20863;-82
2024/01/05 01:42:01;;;;;;;10.20;4.13;;;8.90;7.70;;;6.22;100.00;99320.41;4973727;28;20510;-80
2024/01/05 01:44:29;;;;;;;14.73;3.55;;;7.80;1.00;;;5.90;100.00;99270.59;4958012;28;20438;-79
2024/01/05 01:46:57;;;;;;;6.18;3.00;;;7.80;1.00;;;5.86;100.00;99263.75;4959087;28;20051;-81
2024/01/05 01:49:25;;;;;;;7.47;2.63;;;8.70;1.00;;;5.77;100.00;99277.81;4969477;28;20443;-80
2024/01/05 01:51:53;;;;;;;8.25;3.15;;;9.10;1.00;;;5.65;100.00;99257.22;4958578;28;20057;-81
2024/01/05 01:54:21;;;;;;;7.47;3.00;;;7.90;1.00;;;5.84;100.00;99275.09;4963242;28;20038;-79
2024/01/05 01:56:49;;;;;;;7.78;4.18;;;7.80;1.00;;;6.48;100.00;99364.22;4965351;28;20079;-80
2024/01/05 01:59:16;;;;;;;8.05;3.42;;;8.30;1.00;;;6.37;100.00;99334.88;4975296;28;20534;-81
2024/01/05 02:01:44;;;;;;;9.25;3.05;;;8.90;1.00;;;5.95;100.00;99278.34;4979625;28;20042;-81
2024/01/05 02:04:15;;;;;;;7.57;3.45;;;7.70;1.30;;;5.53;100.00;99200.94;4979096;28;20117;-82
2024/01/05 02:06:45;;;;;;;11.43;4.05;;;8.10;1.00;;;5.86;100.00;99250.69;4978040;28;20050;-80
2024/01/05 02:09:12;;;;;;;11.45;3.55;;;8.40;1.00;;;5.92;100.00;99274.03;4963441;28;20050;-79
2024/01/05 02:11:40;;;;;;;8.75;4.05;;;8.00;1.00;;;5.84;100.00;99247.22;4979553;28;20046;-81
2024/01/05 02:14:07;;;;;;;9.63;3.70;;;7.90;1.00;;;5.72;100.00;99237.91;4979493;28;20050;-80
2024/01/05 02:16:34;;;;;;;8.10;3.17;;;7.70;1.00;;;6.13;100.00;99321.47;4978633;28;20047;-80
2024/01/05 02:19:01;;;;;;;10.35;3.70;;;8.60;1.00;;;5.70;100.00;99241.44;4978415;28;20058;-81
2024/01/05 02:21:42;;;;;;;6.45;2.72;;;7.60;1.00;;;6.10;100.00;99317.19;4972548;28;20046;-80
2024/01/05 02:24:09;;;;;;;5.97;2.78;;;7.80;1.00;;;5.69;100.00;99243.22;4968917;28;20077;-83
2024/01/05 02:26:36;;;;;;;5.88;3.10;;;8.80;1.00;;;5.81;100.00;99229.91;4969837;28;20058;-82
2024/01/05 02:29:04;;;;;;;7.82;3.25;;;8.70;1.00;;;5.91;100.00;99269.69;4978498;28;20429;-82
2024/01/05 02:31:31;;;;;;;15.13;3.33;;;7.90;1.00;;;5.84;100.00;99243.78;4979151;28;20038;-82
2024/01/05 02:33:58;;;;;;;8.77;2.97;;;8.10;1.00;;;5.95;100.00;99266.13;4976070;28;20070;-82
2024/01/05 02:36:26;;;;;;;8.85;3.40;;;7.70;1.00;;;5.99;100.00;99248.63;4995398;28;20531;-85
2024/01/05 02:38:53;;;;;;;7.65;3.35;;;8.30;1.00;;;5.81;100.00;99219.47;4971115;28;20054;-80
2024/01/05 02:41:20;;;;;;;8.60;3.70;;;8.90;1.00;;;6.21;100.00;99282.97;4955585;28;20050;-81
2024/01/05 02:43:47;;;;;;;6.05;2.60;;;8.10;1.00;;;6.19;100.00;99296.97;4975249;28;20521;-79
2024/01/05 02:46:17;;;;;;;10.05;3.92;;;8.40;1.00;;;5.80;100.00;99222.97;4975729;28;20113;-81
2024/01/05 02:48:44;;;;;;;11.38;4.55;;;8.30;1.00;;;5.90;100.00;99234.03;4973885;28;20038;-81
2024/01/05 02:51:11;;;;;;;8.80;3.08;;;8.80;1.00;;;6.04;100.00;99269.47;4994534;28;20061;-80
2024/01/05 02:53:42;;;;;;;8.98;3.33;;;8.20;1.00;;;5.80;100.00;99241.22;4979855;28;20042;-82
2024/01/05 02:56:17;;;;;;;7.18;3.10;;;7.60;1.00;;;5.73;100.00;99215.31;4994370;28;20057;-82
2024/01/05 02:58:44;;;;;;;6.90;3.00;;;7.40;1.00;;;5.76;100.00;99215.22;4979977;28;20046;-80
2024/01/05 03:01:18;;;;;;;9.00;2.90;;;8.00;1.00;;;5.70;100.00;99192.72;4978919;28;20113;-82
2024/01/05 03:03:49;;;;;;;7.38;4.03;;;8.40;1.00;;;5.97;100.00;99233.00;4994373;28;20100;-82
2024/01/05 03:06:19;;;;;;;8.40;3.30;;;8.20;1.00;;;5.91;100.00;99238.38;4995053;28;20035;-80
2024/01/05 03:08:46;;;;;;;6.88;3.33;;;8.20;1.00;;;5.99;100.00;99232.97;4988561;28;20066;-81
2024/01/05 03:11:14;;;;;;;8.15;3.15;;;8.40;1.00;;;5.58;100.00;99149.50;4964237;28;20050;-83
2024/01/05 03:13:41;;;;;;;6.97;2.92;;;7.40;1.00;;;5.78;100.00;99176.91;4972451;28;20048;-82
2024/01/05 03:16:08;;;;;;;6.32;3.40;;;7.90;1.00;;;5.80;100.00;99178.59;4997917;28;20054;-82
2024/01/05 03:18:35;;;;;;;9.93;3.05;;;7.80;1.00;;;6.09;100.00;99217.97;4978729;28;20050;-83
2024/01/05 03:21:03;;;;;;;7.32;3.10;;;8.30;1.00;;;6.14;100.00;99203.03;4997020;28;20118;-83
2024/01/05 03:23:30;;;;;;;14.35;3.28;;;7.70;1.00;;;5.61;100.00;99127.69;4964931;28;20116;-81
2024/01/05 03:25:57;;;;;;;7.47;2.80;;;8.10;1.00;;;5.64;100.00;99131.09;4947435;28;20054;-83
2024/01/05 03:28:24;;;;;;;10.57;3.17;;;8.10;1.00;;;5.83;100.00;99154.13;4970811;28;20100;-82
2024/01/05 03:30:52;;;;;;;6.82;3.03;;;7.90;1.00;;;5.85;100.00;99151.50;4987092;28;20042;-83
2024/01/05 03:33:22;;;;;;;7.03;2.83;;;7.70;1.00;;;5.50;100.00;99097.50;4976422;28;20050;-81
2024/01/05 03:35:50;;;;;;;9.27;3.30;;;8.70;1.00;;;6.28;100.00;99235.81;4975869;28;20213;-81
2024/01/05 03:38:17;;;;;;;8.07;3.70;;;8.20;1.00;;;5.78;100.00;99158.63;4976852;28;20062;-82
2024/01/05 03:40:44;;;;;;;6.30;3.22;;;8.60;1.00;;;5.61;100.00;99130.31;4971321;28;20082;-82
2024/01/05 03:43:13;;;;;;;10.60;3.55;;;7.60;1.00;;;5.90;100.00;99174.00;4958842;28;20426;-80
2024/01/05 03:45:40;;;;;;;7.45;3.33;;;7.60;1.00;;;5.79;100.00;99160.34;4962870;28;20093;-82
2024/01/05 03:48:07;;;;;;;11.65;4.15;;;7.70;1.00;;;5.76;100.00;99142.16;4979782;28;20058;-82
2024/01/05 03:50:35;;;;;;;7.68;3.05;;;8.90;1.00;;;5.68;100.00;99132.72;4973574;28;20093;-80
2024/01/05 03:53:02;;;;;;;6.75;2.80;;;8.30;1.00;;;5.62;100.00;99129.41;4973455;28;20039;-81
2024/01/05 03:55:29;;;;;;;15.27;3.88;;;7.70;1.00;;;5.87;100.00;99157.53;4990784;28;20042;-81
2024/01/05 03:57:57;;;;;;;6.82;3.30;;;8.10;1.00;;;5.52;100.00;99095.72;4959566;28;20181;-80
2024/01/05 04:00:24;;;;;;;9.48;2.83;;;7.70;1.00;;;5.58;100.00;99104.28;4988009;28;20046;-81
2024/01/05 04:02:51;;;;;;;11.55;3.05;;;8.90;1.00;;;5.61;100.00;99117.25;4968896;28;20063;-80
2024/01/05 04:05:18;;;;;;;8.50;3.55;;;8.80;1.00;;;5.79;100.00;99114.22;4990687;28;20050;-80
2024/01/05 04:07:45;;;;;;;12.23;4.43;;;7.70;1.00;;;6.30;100.00;99189.59;4968641;28;20051;-81
2024/01/05 04:10:13;;;;;;;5.70;3.05;;;7.80;1.00;;;6.19;100.00;99177.69;4989151;28;20038;-80
2024/01/05 04:12:40;;;;;;;6.30;2.80;;;7.70;1.00;;;6.15;100.00;99155.13;4972755;28;20050;-81
2024/01/05 04:15:08;;;;;;;7.28;2.78;;;8.00;1.00;;;6.04;100.00;99149.34;4986057;28;20081;-80
2024/01/05 04:17:38;;;;;;;6.75;2.85;;;7.80;1.00;;;5.71;100.00;99074.38;4982830;28;20043;-80
2024/01/05 04:20:06;;;;;;;6.95;2.80;;;7.70;1.00;;;5.91;100.00;99110.44;4973915;28;20053;-80
2024/01/05 04:22:33;;;;;;;6.80;3.97;;;7.80;1.00;;;5.92;100.00;99104.31;4989350;28;20078;-81
2024/01/05 04:25:00;;;;;;;6.35;4.38;;;8.40;1.00;;;6.51;100.00;99215.19;4975269;28;20042;-81
2024/01/05 04:27:27;;;;;;;10.52;3.53;;;8.30;1.00;;;5.95;100.00;99119.91;4964505;28;20054;-82
2024/01/05 04:29:56;;;;;;;6.00;2.67;;;8.10;1.00;;;5.97;100.00;99130.31;4972674;28;20046;-81
2024/01/05 04:32:23;;;;;;;3.90;2.50;;;8.30;1.00;;;5.94;100.00;99118.19;4981084;28;20046;-81
2024/01/05 04:34:51;;;;;;;7.25;3.17;;;8.40;1.00;;;6.39;100.00;99178.91;4960247;28;20296;-80
2024/01/05 04:37:21;;;;;;;7.30;3.25;;;7.10;1.00;;;5.75;100.00;99081.25;4993156;28;20054;-80
2024/01/05 04:39:49;;;;;;;7.25;3.80;;;8.50;1.00;;;5.79;100.00;99087.25;4987071;28;20058;-80
2024/01/05 04:42:16;;;;;;;7.45;3.45;;;8.40;1.00;;;5.56;100.00;99065.19;4952878;28;20043;-80
2024/01/05 04:44:43;;;;;;;7.38;2.55;;;7.70;1.00;;;5.85;100.00;99097.53;4984152;28;20109;-81
2024/01/05 04:47:10;;;;;;;8.35;3.05;;;9.10;1.00;;;5.93;100.00;99120.84;4970235;28;20138;-80
2024/01/05 04:49:37;;;;;;;9.98;3.30;;;7.70;1.00;;;5.68;100.00;99085.75;4973633;28;20042;-80
2024/01/05 04:52:05;;;;;;;8.70;3.03;;;7.80;1.00;;;5.60;100.00;99065.97;4964826;28;20076;-82
2024/01/05 04:54:32;;;;;;;4.82;2.88;;;7.70;1.00;;;5.86;100.00;99114.94;4968319;28;20073;-81
2024/01/05 04:57:01;;;;;;;5.90;3.00;;;7.50;1.00;;;6.18;100.00;99151.59;4964770;28;20153;-80
2024/01/05 04:59:30;;;;;;;7.38;3.00;;;8.50;1.00;;;5.96;100.00;99123.38;4973926;28;20077;-80
2024/01/05 05:01:59;;;;;;;7.30;3.40;;;8.90;1.00;;;6.20;100.00;99148.06;4972724;28;20525;-80
2024/01/05 05:04:26;;;;;;;6.13;3.40;;;8.50;1.00;;;5.77;100.00;99091.66;4970697;28;20104;-82
2024/01/05 05:06:53;;;;;;;11.05;4.20;;;8.30;1.00;;;5.62;100.00;99040.69;4975125;28;20051;-81
2024/01/05 05:09:20;;;;;;;9.05;3.92;;;7.70;1.00;;;5.91;100.00;99091.28;4963211;28;20042;-81
2024/01/05 05:11:48;;;;;;;8.10;3.65;;;9.00;1.00;;;6.04;100.00;99097.97;4976903;28;20043;-82
2024/01/05 05:14:15;;;;;;;8.75;3.63;;;9.30;1.00;;;6.05;100.00;99119.72;4965250;28;20145;-80
2024/01/05 05:16:42;;;;;;;5.15;3.13;;;8.00;1.00;;;6.13;100.00;99122.13;4967776;28;20061;-83
2024/01/05 05:19:09;;;;;;;11.82;4.30;;;9.30;1.00;;;5.89;100.00;99080.03;4986618;28;20074;-80
2024/01/05 05:21:36;;;;;;;7.18;3.53;;;8.00;1.00;;;6.02;100.00;99086.69;4960009;28;20146;-80
2024/01/05 05:24:04;;;;;;;11.38;5.45;;;7.80;1.00;;;6.31;100.00;99131.22;4989355;28;20072;-81
2024/01/05 05:26:31;;;;;;;21.65;10.73;;;8.80;1.00;;;5.73;100.00;99033.44;4972784;28;20145;-80
2024/01/05 05:28:58;;;;;;;15.38;8.55;;;8.40;1.00;;;6.17;100.00;99116.81;4982305;28;20050;-80
2024/01/05 05:31:25;;;;;;;12.63;6.47;;;8.30;1.00;;;6.17;100.00;99097.66;4955156;28;20055;-80
2024/01/05 05:33:52;;;;;;;10.65;4.70;;;8.60;1.00;;;6.60;100.00;99166.19;4971156;28;20042;-80
2024/01/05 05:36:20;;;;;;;13.15;10.27;;;8.00;1.00;;;6.51;100.00;99155.09;4972539;28;20069;-82
2024/01/05 05:38:47;;;;;;;10.93;5.18;;;8.10;1.00;;;6.53;100.00;99150.69;4971443;28;20046;-80
2024/01/05 05:41:14;;;;;;;10.50;6.15;;;8.10;1.00;;;6.61;100.00;99186.19;4977357;28;20057;-82
2024/01/05 05:43:41;;;;;;;15.30;5.82;;;8.20;1.00;;;6.29;100.00;99122.56;4965232;28;20051;-81
2024/01/05 05:46:08;;;;;;;12.70;4.13;;;8.10;1.00;;;6.01;100.00;99100.66;4982620;28;20133;-81
2024/01/05 05:48:35;;;;;;;6.57;3.78;;;8.40;1.00;;;6.28;100.00;99126.09;4951208;28;20134;-81
2024/01/05 05:51:04;;;;;;;10.63;4.20;;;9.40;1.00;;;6.47;100.00;99178.72;4975099;28;20109;-80
2024/01/05 05:53:31;;;;;;;12.93;4.50;;;9.10;1.00;;;6.64;100.00;99186.13;4966141;28;20502;-82
2024/01/05 05:55:58;;;;;;;8.20;3.78;;;7.90;1.00;;;6.29;100.00;99138.25;4981752;28;20051;-80
2024/01/05 05:58:26;;;;;;;8.13;4.65;;;8.10;1.00;;;6.52;100.00;99166.38;4990809;28;20163;-81
2024/01/05 06:00:54;;;;;;;7.28;4.53;;;8.20;1.00;;;6.23;100.00;99116.63;4974530;28;20144;-80
2024/01/05 06:03:24;;;;;;;12.48;6.07;;;8.70;1.00;;;6.53;100.00;99168.09;4965565;28;20034;-81
2024/01/05 06:05:52;;;;;;;;;;;8.10;1.00;;;6.25;100.00;99116.59;4985518;28;20057;-81
2024/01/05 06:08:19;;;;;;;11.48;6.25;;;8.90;1.00;;;6.58;100.00;99187.16;4976907;28;19938;-80
2024/01/05 06:10:46;;;;;;;12.02;6.13;;;8.60;1.00;;;6.48;100.00;99169.97;4979418;28;20042;-80
2024/01/05 06:13:13;;;;;;;14.93;7.13;;;8.90;1.00;;;6.25;100.00;99132.28;4977515;28;20056;-80
2024/01/05 06:15:41;;;;;;;14.70;7.47;;;9.00;1.00;;;6.34;100.00;99139.00;4972128;28;20038;-80
2024/01/05 06:18:08;;;;;;;12.70;6.70;;;8.10;1.00;;;6.74;100.00;99199.81;4994928;28;20050;-81
2024/01/05 06:20:36;;;;;;;13.20;6.35;;;8.10;1.00;;;6.60;100.00;99208.00;4978924;28;20101;-80
2024/01/05 06:23:03;;;;;;;15.32;11.27;;;7.50;1.00;;;6.12;100.00;99108.19;4986182;28;20046;-80
2024/01/05 06:25:30;;;;;;;23.92;19.55;;;8.10;1.00;;;6.80;100.00;99233.63;4988361;28;20382;-80
2024/01/05 06:27:57;;;;;;;47.65;41.55;;;7.80;1.00;;;6.20;100.00;99141.97;4979138;28;20057;-80
2024/01/05 06:30:24;;;;;;;21.00;18.40;;;8.90;1.00;;;6.74;100.00;99220.72;4980148;28;20049;-80
2024/01/05 06:32:51;;;;;;;10.20;6.00;;;9.40;1.00;;;6.65;100.00;99193.91;4995960;28;20069;-80
2024/01/05 06:35:19;;;;;;;8.40;7.53;;;8.70;1.00;;;6.01;100.00;99104.97;4976844;28;20046;-81
2024/01/05 06:37:46;;;;;;;8.13;4.60;;;9.50;1.00;;;6.50;100.00;99171.66;4976911;28;20043;-81
2024/01/05 06:40:13;;;;;;;8.07;4.10;;;8.20;1.00;;;6.31;100.00;99110.31;4980741;28;20051;-81
2024/01/05 06:42:41;;;;;;;6.50;3.97;;;8.20;1.00;;;6.29;100.00;99112.13;5000007;28;20050;-80
2024/01/05 06:45:08;;;;;;;7.65;3.35;;;7.80;1.00;;;6.52;100.00;99151.56;4991993;28;20070;-82
2024/01/05 06:47:35;;;;;;;8.85;4.22;;;8.20;1.00;;;6.64;100.00;99176.50;4998153;28;20412;-81
2024/01/05 06:50:03;;;;;;;8.43;3.55;;;8.80;1.00;;;6.56;100.00;99136.69;4977142;28;20157;-81
2024/01/05 06:52:32;;;;;;;7.30;3.70;;;8.30;1.00;;;6.83;100.00;99206.53;4967664;28;20480;-80
2024/01/05 06:54:59;;;;;;;14.82;10.52;;;9.00;1.00;;;6.43;100.00;99146.59;4981370;28;20046;-80
2024/01/05 06:57:29;;;;;;;11.70;7.22;;;9.00;1.00;;;6.71;100.00;99186.78;4992562;28;20702;-79
2024/01/05 06:59:56;;;;;;;18.27;10.75;;;9.00;1.00;;;6.13;100.00;99101.25;4977741;28;20141;-79
2024/01/05 07:02:24;;;;;;;13.15;8.15;;;8.20;1.00;;;6.23;100.00;99127.06;4960599;28;20074;-80
2024/01/05 07:04:51;;;;;;;12.15;8.63;;;9.00;1.00;;;6.32;100.00;99149.47;4986464;28;20525;-80
2024/01/05 07:07:18;;;;;;;19.30;17.10;;;8.30;1.00;;;6.38;100.00;99149.31;4977348;28;20648;-80
2024/01/05 07:09:46;;;;;;;16.30;14.35;;;8.40;1.00;;;6.22;100.00;99111.44;4977168;28;20047;-80
2024/01/05 07:12:15;;;;;;;10.00;8.40;;;9.00;1.00;;;6.67;100.00;99186.88;4960462;28;20047;-80
2024/01/05 07:14:42;;;;;;;12.30;5.90;;;8.60;1.00;;;6.34;100.00;99136.41;4976167;28;20421;-80
2024/01/05 07:17:10;;;;;;;8.95;4.90;;;8.50;1.00;;;6.55;100.00;99181.13;4994891;28;20051;-80
2024/01/05 07:19:39;;;;;;;6.85;4.25;;;8.30;1.00;;;6.30;100.00;99135.59;4976093;28;20077;-80
2024/01/05 07:22:06;;;;;;;6.45;3.72;;;9.10;1.00;;;6.98;100.00;99268.88;4975424;28;20656;-80
2024/01/05 07:24:36;;;;;;;10.57;3.80;;;8.30;1.00;;;6.91;100.00;99246.41;4981371;28;20109;-79
2024/01/05 07:27:05;;;;;;;9.45;4.80;;;9.50;1.00;;;6.80;100.00;99205.72;4997418;28;20053;-79
2024/01/05 07:29:32;;;;;;;8.30;4.22;;;8.20;1.00;;;6.26;100.00;99130.50;4965842;28;20490;-80
2024/01/05 07:31:59;;;;;;;7.20;3.72;;;8.20;1.00;;;6.63;100.00;99187.00;4986490;28;20066;-80
2024/01/05 07:34:26;;;;;;;10.05;3.35;;;8.20;1.00;;;6.73;100.00;99214.63;4962686;28;20549;-80
2024/01/05 07:36:54;;;;;;;8.18;3.95;;;8.60;1.00;;;6.36;100.00;99142.44;4959199;28;20050;-81
2024/01/05 07:39:21;;;;;;;10.32;3.88;;;9.50;1.00;;;6.38;100.00;99145.84;4972347;28;20536;-80
2024/01/05 07:41:49;;;;;;;8.30;4.20;;;8.60;1.00;;;6.51;100.00;99162.06;4963157;28;20051;-80
2024/01/05 07:44:16;;;;;;;8.77;3.00;;;8.30;1.00;;;6.11;100.00;99088.22;4986664;28;20110;-80
2024/01/05 07:46:44;;;;;;;5.28;3.00;;;8.70;1.00;;;6.40;100.00;99138.84;4975857;28;20595;-80
2024/01/05 07:49:12;;;;;;;5.85;3.85;;;9.20;99.90;;;6.34;100.00;99131.16;4980477;28;20081;-80
2024/01/05 07:51:39;;;;;;;10.70;3.78;;;8.20;99.90;;;6.26;100.00;99123.53;4991441;28;20034;-81
2024/01/05 07:54:08;;;;;;;7.78;3.38;;;8.20;99.90;;;6.36;100.00;99122.38;4972385;28;20051;-80
2024/01/05 07:56:40;;;;;;;6.85;3.28;;;8.70;99.90;;;6.46;100.00;99146.50;4960445;28;20665;-81
2024/01/05 07:59:07;;;;;;;9.13;3.45;;;9.20;99.90;;;6.45;100.00;99126.50;4979324;28;20050;-81
2024/01/05 08:01:34;;;;;;;8.07;4.55;;;8.50;99.90;;;6.55;100.00;99145.38;4981303;28;20495;-81
2024/01/05 08:04:02;;;;;;;10.57;8.35;;;8.30;99.90;;;7.00;100.00;99216.50;4996900;28;20052;-81
2024/01/05 08:06:30;;;;;;;11.13;7.50;;;8.30;99.90;;;6.53;100.00;99137.59;4960715;28;20061;-82
2024/01/05 08:08:57;;;;;;;7.65;3.97;;;8.30;99.90;;;6.29;100.00;99084.25;4993532;28;20077;-81
2024/01/05 08:11:24;;;;;;;7.68;4.30;;;8.70;99.90;;;6.30;100.00;99079.88;4981426;28;20038;-81
2024/01/05 08:13:52;;;;;;;6.55;4.28;;;8.20;99.90;;;6.23;100.00;99084.41;4994740;28;20050;-81
2024/01/05 08:16:19;;;;;;;9.05;4.35;;;8.50;99.90;;;6.41;100.00;99097.91;4980108;28;20099;-80
2024/01/05 08:18:46;;;;;;;6.20;3.78;;;8.40;99.90;;;6.87;100.00;99154.13;4994872;28;20069;-81
2024/01/05 08:21:14;;;;;;;5.90;3.55;;;9.10;99.90;;;6.63;100.00;99116.44;4996010;28;20116;-80
2024/01/05 08:23:41;;;;;;;5.32;3.38;;;9.30;99.90;;;6.13;100.00;99034.19;4971783;28;20043;-80
2024/01/05 08:26:09;;;;;;;8.50;3.88;;;8.30;99.90;;;6.58;100.00;99093.06;4961739;28;20109;-80
2024/01/05 08:28:36;;;;;;;7.25;4.60;;;8.40;99.90;;;7.01;100.00;99152.84;4973481;28;20054;-80
2024/01/05 08:31:03;;;;;;;6.88;3.58;;;8.60;99.90;;;6.69;100.00;99126.72;4978913;28;20128;-80
2024/01/05 08:33:30;;;;;;;9.23;4.30;;;8.50;99.90;;;6.34;100.00;99060.63;4967983;28;20069;-80
2024/01/05 08:35:58;;;;;;;9.25;4.43;;;8.50;99.90;;;6.74;100.00;99114.38;4967372;28;20162;-80
2024/01/05 08:38:25;;;;;;;7.28;3.47;;;8.40;99.90;;;6.71;100.00;99093.56;4973180;28;20480;-80
2024/01/05 08:40:52;;;;;;;10.40;5.07;;;9.20;99.90;;;6.72;100.00;99108.34;4954769;28;20468;-79
2024/01/05 08:43:20;;;;;;;10.90;4.40;;;8.50;99.90;;;6.58;100.00;99093.06;5007144;28;20054;-80
2024/01/05 08:45:48;;;;;;;5.35;4.20;;;8.40;99.90;;;6.63;100.00;99085.94;4983683;28;20047;-80
2024/01/05 08:48:15;;;;;;;6.70;3.83;;;9.30;99.90;;;6.91;100.00;99140.06;4991198;28;20719;-80
2024/01/05 08:50:42;;;;;;;6.00;3.25;;;9.00;99.90;;;6.62;100.00;99089.44;4992665;28;20501;-81
2024/01/05 08:53:10;;;;;;;8.57;3.25;;;8.50;99.90;;;6.76;100.00;99115.19;4990185;28;20153;-80
2024/01/05 08:55:37;;;;;;;5.07;3.03;;;9.40;99.90;;;6.87;100.00;99154.13;4981469;28;20391;-80
2024/01/05 08:58:05;;;;;;;4.90;3.20;;;8.50;99.90;;;6.95;100.00;99170.44;4994574;28;20061;-81
2024/01/05 09:00:33;;;;;;;8.57;3.22;;;9.20;99.90;;;7.01;100.00;99185.09;4970257;28;20039;-80
2024/01/05 09:03:00;;;;;;;7.47;3.05;;;9.10;99.90;;;6.71;100.00;99122.31;4969592;28;20050;-81
2024/01/05 09:05:28;;;;;;;8.60;3.20;;;8.50;99.90;;;6.92;100.00;99141.78;4973629;28;20064;-80
2024/01/05 09:07:55;;;;;;;8.18;3.53;;;9.10;99.90;;;6.95;100.00;99161.75;4980980;28;20358;-81
2024/01/05 09:10:23;;;;;;;6.40;3.28;;;8.50;99.90;;;6.75;100.00;99116.09;4964828;28;20046;-80
2024/01/05 09:12:50;;;;;;;7.38;2.97;;;9.10;99.90;;;6.83;100.00;99126.31;4989388;28;20441;-80
2024/01/05 09:15:17;;;;;;;8.30;3.85;;;8.60;99.90;;;6.85;100.00;99128.91;4985538;28;20057;-79
2024/01/05 09:17:45;;;;;;;7.75;3.28;;;9.50;99.90;;;7.15;100.00;99189.09;4980899;28;20422;-79
2024/01/05 09:20:12;;;;;;;5.47;4.25;;;10.20;1.00;;;6.90;100.00;99153.16;4977472;28;20101;-80
2024/01/05 09:22:40;;;;;;;7.93;3.08;;;8.70;1.00;;;7.44;100.00;99237.09;4976435;28;20049;-81
2024/01/05 09:25:10;;;;;;;6.97;3.97;;;9.40;99.90;;;7.04;100.00;99156.25;4981618;28;20046;-79
2024/01/05 09:27:38;;;;;;;11.82;4.30;;;8.70;99.90;;;6.99;100.00;99145.06;4973411;28;20097;-80
2024/01/05 09:30:07;;;;;;;5.43;3.17;;;8.80;99.90;;;7.55;100.00;99232.38;4965936;28;20046;-80
2024/01/05 09:32:35;;;;;;;5.75;2.95;;;8.80;99.90;;;6.99;100.00;99142.44;5003278;28;20521;-81
2024/01/05 09:35:04;;;;;;;5.00;2.53;;;9.70;99.90;;;7.61;100.00;99245.31;4986503;28;20047;-80
2024/01/05 09:37:31;;;;;;;4.78;2.97;;;8.30;99.90;;;7.22;100.00;99159.22;4945671;28;20536;-79
2024/01/05 09:39:58;;;;;;;20.60;13.20;;;9.50;99.90;;;7.41;100.00;99185.69;4966902;28;20109;-80
2024/01/05 09:42:26;;;;;;;29.88;25.95;;;10.10;99.90;;;7.41;100.00;99183.06;4977463;28;20066;-80
2024/01/05 09:44:54;;;;;;;6.50;4.57;;;9.70;99.90;;;7.06;100.00;99138.75;4976902;28;20355;-79
2024/01/05 09:47:21;;;;;;;5.50;3.20;;;9.40;99.90;;;6.89;100.00;99083.47;4960756;28;20049;-79
2024/01/05 09:49:52;;;;;;;5.15;3.15;;;9.10;99.90;;;7.15;100.00;99113.22;4983836;28;20043;-80
2024/01/05 09:52:21;;;;;;;6.68;2.95;;;9.10;99.90;;;7.05;100.00;99089.09;4990997;28;20524;-79
2024/01/05 09:54:50;;;;;;;10.07;3.85;;;9.80;99.90;;;7.71;100.00;99209.22;4986518;28;20065;-82
2024/01/05 09:57:18;;;;;;;6.82;3.38;;;9.30;99.90;;;7.12;100.00;99100.25;4991076;28;20047;-81
2024/01/05 09:59:47;;;;;;;8.23;3.78;;;9.30;99.90;;;7.55;100.00;99159.09;4959889;28;20042;-82
2024/01/05 10:02:26;;;;;;;10.10;4.20;;;9.30;99.90;;;8.07;100.00;99239.56;4985008;28;20468;-82
2024/01/05 10:04:55;;;;;;;10.88;3.65;;;9.40;99.90;;;7.80;100.00;99189.75;4979173;28;20042;-80
2024/01/05 10:07:23;;;;;;;8.48;3.63;;;10.30;99.90;;;7.61;100.00;99160.66;4981572;28;20049;-83
2024/01/05 10:09:53;;;;;;;9.32;4.20;;;9.50;99.90;;;7.99;100.00;99220.59;4992034;28;20050;-80
2024/01/05 10:12:21;;;;;;;7.80;3.25;;;9.60;99.90;;;7.87;100.00;99162.44;4993035;28;20133;-80
2024/01/05 10:14:48;;;;;;;8.90;3.95;;;10.70;99.90;;;7.66;100.00;99138.69;4978002;28;20042;-80
2024/01/05 10:17:16;;;;;;;6.22;2.80;;;9.60;99.90;;;7.76;100.00;99143.63;4970614;28;20058;-82
2024/01/05 10:19:44;;;;;;;5.85;3.05;;;9.70;99.90;;;8.36;100.00;99233.34;4994904;28;20100;-81
2024/01/05 10:22:15;;;;;;;7.65;3.40;;;9.70;99.90;;;8.09;100.00;99201.91;4969810;28;20056;-82
2024/01/05 10:24:42;;;;;;;6.72;3.33;;;9.70;99.90;;;8.01;100.00;99187.34;4980069;28;20069;-83
2024/01/05 10:27:14;;;;;;;6.43;2.70;;;11.00;99.90;;;7.73;100.00;99139.34;4977581;28;20042;-82
2024/01/05 10:29:43;;;;;;;6.10;3.03;;;9.70;99.90;;;8.33;100.00;99220.38;4960479;28;20114;-82
2024/01/05 10:32:19;;;;;;;12.25;3.05;;;9.80;99.90;;;8.40;100.00;99220.16;4965554;28;20051;-81